Time,TemperatureF,DewpointF,PressureIn,WindDirection,WindDirectionDegrees,WindSpeedMPH,WindSpeedGustMPH,Humidity,HourlyPrecipIn,Conditions,Clouds,dailyrainin,SoftwareType,DateUTC
2013-06-02 00:09:00,72.0,36.2,29.84,ESE,112,3.7,-999.0,27,-99.99,,,0.00,Acu-Link.com,2013-06-02 06:09:00,
2013-06-02 00:25:00,71.6,35.8,29.85,ESE,112,6.8,-999.0,27,-99.99,,,0.00,Acu-Link.com,2013-06-02 06:25:00,
2013-06-02 00:40:00,71.2,36.4,29.85,NNE,22,3.2,-999.0,28,-99.99,,,0.00,Acu-Link.com,2013-06-02 06:40:00,
2013-06-02 00:55:00,70.7,36.0,29.86,West,270,4.2,-999.0,28,-99.99,,,0.00,Acu-Link.com,2013-06-02 06:55:00,
2013-06-02 01:10:00,70.3,35.6,29.85,East,90,4.7,-999.0,28,-99.99,,,0.00,Acu-Link.com,2013-06-02 07:10:00,
2013-06-02 01:25:00,70.2,35.6,29.85,NNW,337,6.3,-999.0,28,-99.99,,,0.00,Acu-Link.com,2013-06-02 07:25:00,
2013-06-02 01:41:00,69.8,36.1,29.85,NNE,22,4.2,-999.0,29,-99.99,,,0.00,Acu-Link.com,2013-06-02 07:41:00,
2013-06-02 01:56:00,69.3,36.5,29.85,NNE,22,15.5,-999.0,30,-99.99,,,0.00,Acu-Link.com,2013-06-02 07:56:00,
2013-06-02 02:11:00,68.9,36.2,29.86,NNE,22,7.3,-999.0,30,-99.99,,,0.00,Acu-Link.com,2013-06-02 08:11:00,
2013-06-02 02:26:00,69.1,36.4,29.86,NE,45,5.3,-999.0,30,-99.99,,,0.00,Acu-Link.com,2013-06-02 08:26:00,
2013-06-02 02:41:00,68.7,36.8,29.86,SE,135,3.2,-999.0,31,-99.99,,,0.00,Acu-Link.com,2013-06-02 08:41:00,
2013-06-02 02:56:00,68.2,36.4,29.86,SSW,202,8.3,-999.0,31,-99.99,,,0.00,Acu-Link.com,2013-06-02 08:56:00,
2013-06-02 03:11:00,67.6,36.7,29.86,ESE,112,3.7,-999.0,32,-99.99,,,0.00,Acu-Link.com,2013-06-02 09:11:00,
2013-06-02 03:27:00,67.3,37.2,29.87,ESE,112,17.6,-999.0,33,-99.99,,,0.00,Acu-Link.com,2013-06-02 09:27:00,
2013-06-02 03:42:00,67.1,37.8,29.87,South,180,3.2,-999.0,34,-99.99,,,0.00,Acu-Link.com,2013-06-02 09:42:00,
2013-06-02 03:57:00,66.9,37.6,29.87,East,90,5.8,-999.0,34,-99.99,,,0.00,Acu-Link.com,2013-06-02 09:57:00,
2013-06-02 04:13:00,67.1,37.8,29.87,ESE,112,7.3,-999.0,34,-99.99,,,0.00,Acu-Link.com,2013-06-02 10:13:00,
2013-06-02 04:28:00,66.9,38.4,29.86,East,90,4.2,-999.0,35,-99.99,,,0.00,Acu-Link.com,2013-06-02 10:28:00,
2013-06-02 04:43:00,66.4,38.6,29.87,NNW,337,2.7,-999.0,36,-99.99,,,0.00,Acu-Link.com,2013-06-02 10:43:00,
2013-06-02 04:58:00,66.2,38.5,29.87,NE,45,6.8,-999.0,36,-99.99,,,0.00,Acu-Link.com,2013-06-02 10:58:00,
2013-06-02 05:14:00,66.0,39.0,29.88,East,90,4.2,-999.0,37,-99.99,,,0.00,Acu-Link.com,2013-06-02 11:14:00,
2013-06-02 05:29:00,65.7,38.7,29.89,NNE,22,5.3,-999.0,37,-99.99,,,0.00,Acu-Link.com,2013-06-02 11:29:00,
2013-06-02 05:44:00,65.3,38.4,29.89,NE,45,0.0,-999.0,37,-99.99,,,0.00,Acu-Link.com,2013-06-02 11:44:00,
2013-06-02 05:59:00,65.1,38.2,29.90,South,180,3.7,-999.0,37,-99.99,,,0.00,Acu-Link.com,2013-06-02 11:59:00,
2013-06-02 06:15:00,64.9,38.0,29.90,ESE,112,7.3,-999.0,37,-99.99,,,0.00,Acu-Link.com,2013-06-02 12:15:00,
2013-06-02 06:30:00,65.8,38.8,29.90,NNW,337,2.7,-999.0,37,-99.99,,,0.00,Acu-Link.com,2013-06-02 12:30:00,
2013-06-02 06:45:00,65.7,38.7,29.91,NE,45,5.3,-999.0,37,-99.99,,,0.00,Acu-Link.com,2013-06-02 12:45:00,
2013-06-02 07:00:00,65.8,38.8,29.91,ESE,112,4.2,-999.0,37,-99.99,,,0.00,Acu-Link.com,2013-06-02 13:00:00,
2013-06-02 07:16:00,67.6,40.4,29.91,NNE,22,8.3,-999.0,37,-99.99,,,0.00,Acu-Link.com,2013-06-02 13:16:00,
2013-06-02 07:31:00,67.6,40.4,29.91,WSW,247,6.8,-999.0,37,-99.99,,,0.00,Acu-Link.com,2013-06-02 13:31:00,
2013-06-02 07:46:00,68.0,40.8,29.93,SSW,202,7.3,-999.0,37,-99.99,,,0.00,Acu-Link.com,2013-06-02 13:46:00,
2013-06-02 08:01:00,69.8,41.6,29.94,NNE,22,7.3,-999.0,36,-99.99,,,0.00,Acu-Link.com,2013-06-02 14:01:00,
2013-06-02 08:16:00,70.7,40.9,29.94,NW,315,4.2,-999.0,34,-99.99,,,0.00,Acu-Link.com,2013-06-02 14:16:00,
2013-06-02 08:32:00,72.9,42.1,29.93,NNW,337,2.7,-999.0,33,-99.99,,,0.00,Acu-Link.com,2013-06-02 14:32:00,
2013-06-02 08:47:00,75.9,42.2,29.93,ENE,67,2.2,-999.0,30,-99.99,,,0.00,Acu-Link.com,2013-06-02 14:47:00,
2013-06-02 09:02:00,78.3,41.6,29.92,SW,225,1.7,-999.0,27,-99.99,,,0.00,Acu-Link.com,2013-06-02 15:02:00,
2013-06-02 09:17:00,80.4,40.3,29.92,NNE,22,1.7,-999.0,24,-99.99,,,0.00,Acu-Link.com,2013-06-02 15:17:00,
2013-06-02 09:33:00,82.8,41.2,29.92,ENE,67,4.7,-999.0,23,-99.99,,,0.00,Acu-Link.com,2013-06-02 15:33:00,
2013-06-02 09:48:00,82.0,40.5,29.90,ENE,67,1.7,-999.0,23,-99.99,,,0.00,Acu-Link.com,2013-06-02 15:48:00,
2013-06-02 10:03:00,86.0,41.5,29.91,West,270,2.2,-999.0,21,-99.99,,,0.00,Acu-Link.com,2013-06-02 16:03:00,
2013-06-02 10:18:00,88.5,41.0,29.90,NNE,22,3.7,-999.0,19,-99.99,,,0.00,Acu-Link.com,2013-06-02 16:18:00,
2013-06-02 10:34:00,89.1,41.4,29.89,NNE,22,1.7,-999.0,19,-99.99,,,0.00,Acu-Link.com,2013-06-02 16:34:00,
2013-06-02 10:49:00,91.0,40.1,29.88,NE,45,4.7,-999.0,17,-99.99,,,0.00,Acu-Link.com,2013-06-02 16:49:00,
2013-06-02 11:05:00,91.2,40.3,29.89,ESE,112,2.2,-999.0,17,-99.99,,,0.00,Acu-Link.com,2013-06-02 17:05:00,
2013-06-02 11:20:00,94.5,41.3,29.89,SSE,157,4.7,-999.0,16,-99.99,,,0.00,Acu-Link.com,2013-06-02 17:20:00,
2013-06-02 11:35:00,88.5,39.6,29.88,ESE,112,0.0,-999.0,18,-99.99,,,0.00,Acu-Link.com,2013-06-02 17:35:00,
2013-06-02 11:50:00,93.7,42.3,29.87,NW,315,1.7,-999.0,17,-99.99,,,0.00,Acu-Link.com,2013-06-02 17:50:00,
2013-06-02 12:05:00,95.9,-19.5,29.87,South,180,1.7,-999.0,1,-99.99,,,0.00,Acu-Link.com,2013-06-02 18:05:00,
2013-06-02 12:20:00,94.6,34.1,29.86,ESE,112,4.2,-999.0,12,-99.99,,,0.00,Acu-Link.com,2013-06-02 18:20:00,
2013-06-02 12:36:00,96.8,-5.1,29.84,South,180,0.0,-999.0,2,-99.99,,,0.00,Acu-Link.com,2013-06-02 18:36:00,
2013-06-02 12:51:00,97.5,-18.5,29.83,NNW,337,1.7,-999.0,1,-99.99,,,0.00,Acu-Link.com,2013-06-02 18:51:00,
2013-06-02 13:06:00,98.4,-18.0,29.82,SSE,157,2.2,-999.0,1,-99.99,,,0.00,Acu-Link.com,2013-06-02 19:06:00,
2013-06-02 13:21:00,99.9,-17.1,29.82,West,270,5.8,-999.0,1,-99.99,,,0.00,Acu-Link.com,2013-06-02 19:21:00,
2013-06-02 13:36:00,97.3,-18.6,29.80,WSW,247,2.7,-999.0,1,-99.99,,,0.00,Acu-Link.com,2013-06-02 19:36:00,
2013-06-02 13:52:00,98.6,-17.9,29.77,West,270,2.2,-999.0,1,-99.99,,,0.00,Acu-Link.com,2013-06-02 19:52:00,
2013-06-02 14:07:00,98.2,-4.2,29.76,West,270,1.7,-999.0,2,-99.99,,,0.00,Acu-Link.com,2013-06-02 20:07:00,
2013-06-02 14:22:00,99.7,-17.2,29.75,WSW,247,2.2,-999.0,1,-99.99,,,0.00,Acu-Link.com,2013-06-02 20:22:00,
2013-06-02 14:37:00,97.3,36.2,29.75,South,180,2.7,-999.0,12,-99.99,,,0.00,Acu-Link.com,2013-06-02 20:37:00,
2013-06-02 14:52:00,94.6,43.0,29.72,North,0,1.1,-999.0,17,-99.99,,,0.00,Acu-Link.com,2013-06-02 20:52:00,
2013-06-02 15:08:00,90.0,42.2,29.72,South,180,0.0,-999.0,19,-99.99,,,0.00,Acu-Link.com,2013-06-02 21:08:00,
2013-06-02 15:23:00,88.2,44.5,29.73,WSW,247,3.2,-999.0,22,-99.99,,,0.00,Acu-Link.com,2013-06-02 21:23:00,
2013-06-02 15:38:00,86.7,46.6,29.75,SSE,157,0.0,-999.0,25,-99.99,,,0.00,Acu-Link.com,2013-06-02 21:38:00,
2013-06-02 15:54:00,86.0,41.5,29.73,SW,225,2.7,-999.0,21,-99.99,,,0.00,Acu-Link.com,2013-06-02 21:54:00,
2013-06-02 16:09:00,84.7,41.6,29.74,SE,135,4.2,-999.0,22,-99.99,,,0.00,Acu-Link.com,2013-06-02 22:09:00,
2013-06-02 16:24:00,83.8,43.1,29.71,WNW,292,2.2,-999.0,24,-99.99,,,0.00,Acu-Link.com,2013-06-02 22:24:00,
2013-06-02 16:39:00,83.1,44.6,29.71,ENE,67,0.0,-999.0,26,-99.99,,,0.00,Acu-Link.com,2013-06-02 22:39:00,
2013-06-02 16:55:00,82.4,44.0,29.70,East,90,0.0,-999.0,26,-99.99,,,0.00,Acu-Link.com,2013-06-02 22:55:00,
2013-06-02 17:10:00,82.4,46.0,29.69,SE,135,2.7,-999.0,28,-99.99,,,0.00,Acu-Link.com,2013-06-02 23:10:00,
2013-06-02 17:25:00,83.7,45.1,29.70,North,0,2.2,-999.0,26,-99.99,,,0.00,Acu-Link.com,2013-06-02 23:25:00,
2013-06-02 17:40:00,87.6,42.8,29.68,SSE,157,2.7,-999.0,21,-99.99,,,0.00,Acu-Link.com,2013-06-02 23:40:00,
2013-06-02 17:56:00,89.6,43.2,29.68,NNE,22,4.2,-999.0,20,-99.99,,,0.00,Acu-Link.com,2013-06-02 23:56:00,
2013-06-02 18:11:00,88.9,43.9,29.67,West,270,2.7,-999.0,21,-99.99,,,0.00,Acu-Link.com,2013-06-03 00:11:00,
2013-06-02 18:26:00,88.9,45.1,29.67,SSW,202,3.2,-999.0,22,-99.99,,,0.00,Acu-Link.com,2013-06-03 00:26:00,
2013-06-02 18:42:00,88.3,45.8,29.67,WNW,292,4.2,-999.0,23,-99.99,,,0.00,Acu-Link.com,2013-06-03 00:42:00,
2013-06-02 18:57:00,87.1,48.0,29.66,ESE,112,2.7,-999.0,26,-99.99,,,0.00,Acu-Link.com,2013-06-03 00:57:00,
2013-06-02 19:12:00,84.9,50.9,29.65,ESE,112,3.2,-999.0,31,-99.99,,,0.00,Acu-Link.com,2013-06-03 01:12:00,
2013-06-02 19:27:00,82.9,50.8,29.64,SW,225,0.0,-999.0,33,-99.99,,,0.00,Acu-Link.com,2013-06-03 01:27:00,
2013-06-02 19:43:00,82.6,50.6,29.65,SSE,157,0.0,-999.0,33,-99.99,,,0.00,Acu-Link.com,2013-06-03 01:43:00,
2013-06-02 19:58:00,81.1,49.2,29.64,SSE,157,0.0,-999.0,33,-99.99,,,0.00,Acu-Link.com,2013-06-03 01:58:00,
2013-06-02 20:13:00,79.7,48.8,29.65,NE,45,0.0,-999.0,34,-99.99,,,0.00,Acu-Link.com,2013-06-03 02:13:00,
2013-06-02 20:29:00,77.7,49.3,29.65,West,270,0.0,-999.0,37,-99.99,,,0.00,Acu-Link.com,2013-06-03 02:29:00,
2013-06-02 20:44:00,76.3,49.5,29.65,SW,225,0.0,-999.0,39,-99.99,,,0.00,Acu-Link.com,2013-06-03 02:44:00,
2013-06-02 20:59:00,75.4,50.0,29.65,WNW,292,1.7,-999.0,41,-99.99,,,0.00,Acu-Link.com,2013-06-03 02:59:00,
2013-06-02 21:14:00,75.0,49.7,29.67,South,180,1.1,-999.0,41,-99.99,,,0.00,Acu-Link.com,2013-06-03 03:14:00,
2013-06-02 21:30:00,74.8,48.8,29.68,East,90,3.7,-999.0,40,-99.99,,,0.00,Acu-Link.com,2013-06-03 03:30:00,
2013-06-02 21:45:00,75.0,49.0,29.67,NNE,22,3.2,-999.0,40,-99.99,,,0.00,Acu-Link.com,2013-06-03 03:45:00,
2013-06-02 22:00:00,75.6,49.6,29.69,East,90,0.0,-999.0,40,-99.99,,,0.00,Acu-Link.com,2013-06-03 04:00:00,
2013-06-02 22:16:00,74.5,49.9,29.67,NNE,22,1.7,-999.0,42,-99.99,,,0.00,Acu-Link.com,2013-06-03 04:16:00,
2013-06-02 22:31:00,74.1,50.2,29.69,NW,315,0.0,-999.0,43,-99.99,,,0.00,Acu-Link.com,2013-06-03 04:31:00,
2013-06-02 23:02:00,72.0,50.1,29.71,SSW,202,0.0,-999.0,46,-99.99,,,0.00,Acu-Link.com,2013-06-03 05:02:00,
2013-06-02 23:17:00,71.4,50.7,29.71,SSE,157,0.0,-999.0,48,-99.99,,,0.00,Acu-Link.com,2013-06-03 05:17:00,
2013-06-02 23:32:00,71.1,50.4,29.72,SW,225,0.0,-999.0,48,-99.99,,,0.00,Acu-Link.com,2013-06-03 05:32:00,
2013-06-02 23:47:00,70.3,50.2,29.72,ESE,112,0.0,-999.0,49,-99.99,,,0.00,Acu-Link.com,2013-06-03 05:47:00,